Time;durP1;ratioP1;P1;durP2;ratioP2;P2;SDS_P1;SDS_P2;PMS_P1;PMS_P2;Temp;Humidity;BMP_temperature;BMP_pressure;BME280_temperature;BME280_humidity;BME280_pressure;Samples;Min_cycle;Max_cycle;Signal;HPM_P1;HPM_P2
2021/09/25 00:01:48;;;;;;;4.20;3.80;;;16.50;99.90;;;;;;5075825;28;20567;-37
2021/09/25 00:04:14;;;;;;;4.63;4.17;;;16.40;99.90;;;;;;5075536;28;20419;-37
2021/09/25 00:06:40;;;;;;;4.43;3.70;;;16.40;99.90;;;;;;5086653;28;21068;-38
2021/09/25 00:09:05;;;;;;;5.73;4.10;;;16.40;99.90;;;;;;5086270;28;20439;-37
2021/09/25 00:11:32;;;;;;;4.83;4.30;;;16.40;99.90;;;;;;5085286;28;20430;-38
2021/09/25 00:13:58;;;;;;;4.53;4.10;;;16.40;99.90;;;;;;5086182;28;20276;-37
2021/09/25 00:16:26;;;;;;;4.17;3.77;;;16.40;99.90;;;;;;5076560;28;20825;-37
2021/09/25 00:18:54;;;;;;;5.50;5.00;;;16.40;99.90;;;;;;5086138;28;20519;-37
2021/09/25 00:21:20;;;;;;;5.47;4.27;;;16.40;99.90;;;;;;5086399;28;20425;-37
2021/09/25 00:23:45;;;;;;;4.17;3.77;;;16.40;99.90;;;;;;5083305;28;20822;-37
2021/09/25 00:26:11;;;;;;;5.57;4.77;;;16.40;99.90;;;;;;5085912;28;20238;-38
2021/09/25 00:28:37;;;;;;;7.07;5.00;;;16.40;99.90;;;;;;5067942;28;20188;-37
2021/09/25 00:31:03;;;;;;;4.23;3.83;;;16.40;99.90;;;;;;5079567;28;20195;-37
2021/09/25 00:33:28;;;;;;;5.63;4.90;;;16.40;99.90;;;;;;5081386;28;20471;-38
2021/09/25 00:35:54;;;;;;;5.37;4.63;;;16.30;99.90;;;;;;5084686;28;20196;-37
2021/09/25 00:38:20;;;;;;;5.47;4.50;;;16.30;99.90;;;;;;5084898;28;20216;-38
2021/09/25 00:40:45;;;;;;;6.00;4.67;;;16.30;99.90;;;;;;5085779;28;20188;-38
2021/09/25 00:43:11;;;;;;;4.93;4.17;;;16.20;99.90;;;;;;5085511;28;20260;-37
2021/09/25 00:45:36;;;;;;;5.23;4.47;;;16.20;99.90;;;;;;5081822;28;20216;-37
2021/09/25 00:48:02;;;;;;;5.83;4.20;;;16.20;99.90;;;;;;5079519;28;20188;-37
2021/09/25 00:50:28;;;;;;;5.10;4.37;;;16.20;99.90;;;;;;5085585;28;20627;-37
2021/09/25 00:52:55;;;;;;;6.77;4.90;;;16.10;99.90;;;;;;5085364;28;20196;-37
2021/09/25 00:55:23;;;;;;;8.53;5.20;;;16.10;99.90;;;;;;5085656;28;20422;-37
2021/09/25 00:57:53;;;;;;;5.60;4.70;;;16.00;99.90;;;;;;5084718;28;21033;-39
2021/09/25 01:00:19;;;;;;;5.13;4.63;;;16.00;99.90;;;;;;5089411;28;20421;-38
2021/09/25 01:02:45;;;;;;;5.67;4.83;;;16.00;99.90;;;;;;5077774;28;20492;-37
2021/09/25 01:05:12;;;;;;;5.97;4.77;;;16.00;99.90;;;;;;5090095;28;20905;-37
2021/09/25 01:07:37;;;;;;;5.87;4.50;;;15.90;99.90;;;;;;5089699;28;20199;-37
2021/09/25 01:10:04;;;;;;;4.70;4.03;;;15.90;99.90;;;;;;5089985;28;20434;-37
2021/09/25 01:12:29;;;;;;;5.50;4.17;;;15.90;99.90;;;;;;5085265;28;20208;-37
2021/09/25 01:14:55;;;;;;;5.60;4.40;;;15.90;99.90;;;;;;5084728;28;20430;-37
2021/09/25 01:17:21;;;;;;;5.33;4.33;;;15.90;99.90;;;;;;5074665;28;20223;-37
2021/09/25 01:19:47;;;;;;;6.73;4.97;;;15.90;99.90;;;;;;5089454;28;20176;-38
2021/09/25 01:22:13;;;;;;;4.90;4.40;;;15.80;99.90;;;;;;5087730;28;20275;-38
2021/09/25 01:24:39;;;;;;;4.87;4.47;;;15.80;99.90;;;;;;5086679;28;20908;-38
2021/09/25 01:27:06;;;;;;;4.80;4.27;;;15.80;99.90;;;;;;5089316;28;20207;-37
2021/09/25 01:29:32;;;;;;;6.10;4.30;;;15.70;99.90;;;;;;5089901;28;20210;-38
2021/09/25 01:31:58;;;;;;;6.90;4.60;;;15.70;99.90;;;;;;5079427;28;20450;-37
2021/09/25 01:34:23;;;;;;;7.67;4.60;;;15.70;99.90;;;;;;5086185;28;20551;-37
2021/09/25 01:36:50;;;;;;;4.73;4.33;;;15.60;99.90;;;;;;5087775;28;20193;-38
2021/09/25 01:39:16;;;;;;;5.07;4.03;;;15.60;99.90;;;;;;5089441;28;20540;-37
2021/09/25 01:41:42;;;;;;;4.37;3.97;;;15.60;99.90;;;;;;5089411;28;20707;-37
2021/09/25 01:44:08;;;;;;;4.60;4.10;;;15.50;99.90;;;;;;5087371;28;20850;-38
2021/09/25 01:46:33;;;;;;;5.03;4.23;;;15.50;99.90;;;;;;5081356;28;20746;-37
2021/09/25 01:48:59;;;;;;;5.13;4.60;;;15.60;99.90;;;;;;5084670;28;20410;-37
2021/09/25 01:51:25;;;;;;;6.77;4.07;;;15.50;99.90;;;;;;5088160;28;20560;-37
2021/09/25 01:53:51;;;;;;;6.10;5.20;;;15.50;99.90;;;;;;5084537;28;20560;-37
2021/09/25 01:56:17;;;;;;;6.40;5.80;;;15.50;99.90;;;;;;5088920;28;20655;-38
2021/09/25 01:58:43;;;;;;;7.67;5.00;;;15.60;99.90;;;;;;5089029;28;20243;-38
2021/09/25 02:01:11;;;;;;;7.93;6.00;;;15.60;99.90;;;;;;5084728;28;20446;-37
2021/09/25 02:03:37;;;;;;;6.33;5.30;;;15.60;99.90;;;;;;5069035;28;21015;-37
2021/09/25 02:06:09;;;;;;;7.00;6.00;;;15.50;99.90;;;;;;5088414;28;20415;-37
2021/09/25 02:08:37;;;;;;;6.53;5.10;;;15.50;99.90;;;;;;5088391;28;20442;-37
2021/09/25 02:11:03;;;;;;;9.67;5.40;;;15.50;99.90;;;;;;5087013;28;20452;-37
2021/09/25 02:13:30;;;;;;;6.57;5.37;;;15.50;99.90;;;;;;5086815;28;20431;-38
2021/09/25 02:15:55;;;;;;;8.67;5.53;;;15.50;99.90;;;;;;5088715;28;20684;-37
2021/09/25 02:18:21;;;;;;;6.67;5.07;;;15.40;99.90;;;;;;5084586;28;20476;-37
2021/09/25 02:20:47;;;;;;;6.60;5.30;;;15.50;99.90;;;;;;5086324;28;20212;-37
2021/09/25 02:23:13;;;;;;;6.07;5.47;;;15.40;99.90;;;;;;5087131;28;20188;-37
2021/09/25 02:25:39;;;;;;;5.47;4.97;;;15.40;99.90;;;;;;5087861;28;20445;-37
2021/09/25 02:28:05;;;;;;;6.90;5.50;;;15.40;99.90;;;;;;5088568;28;20433;-38
2021/09/25 02:30:31;;;;;;;7.07;5.50;;;15.30;99.90;;;;;;5086941;28;20426;-37
2021/09/25 02:32:57;;;;;;;7.87;5.50;;;15.30;99.90;;;;;;5078737;28;20189;-37
2021/09/25 02:35:23;;;;;;;5.60;4.33;;;15.30;99.90;;;;;;5088253;28;20423;-37
2021/09/25 02:37:50;;;;;;;6.33;5.70;;;15.30;99.90;;;;;;5088196;28;20238;-37
2021/09/25 02:40:18;;;;;;;8.40;5.20;;;15.30;99.90;;;;;;5087847;28;20432;-37
2021/09/25 02:42:44;;;;;;;6.30;5.70;;;15.30;99.90;;;;;;5087862;28;21020;-37
2021/09/25 02:45:11;;;;;;;8.10;5.97;;;15.30;99.90;;;;;;5086627;28;20848;-37
2021/09/25 02:47:38;;;;;;;6.57;5.00;;;15.20;99.90;;;;;;5078168;28;20504;-37
2021/09/25 02:50:05;;;;;;;9.33;6.30;;;15.30;99.90;;;;;;5087349;28;20430;-37
2021/09/25 02:52:31;;;;;;;7.67;5.80;;;15.30;99.90;;;;;;5087054;28;20462;-37
2021/09/25 02:54:56;;;;;;;6.83;5.60;;;15.30;99.90;;;;;;5086103;28;20465;-37
2021/09/25 02:57:22;;;;;;;10.47;6.27;;;15.30;99.90;;;;;;5087736;28;20628;-37
2021/09/25 02:59:47;;;;;;;7.90;5.83;;;15.40;99.90;;;;;;5088101;28;20275;-37
2021/09/25 03:02:13;;;;;;;8.20;6.53;;;15.40;99.90;;;;;;5083514;28;20180;-37
2021/09/25 03:04:39;;;;;;;9.50;6.30;;;15.40;99.90;;;;;;5087026;28;20207;-37
2021/09/25 03:07:07;;;;;;;5.87;5.07;;;15.50;99.90;;;;;;5086223;28;20615;-37
2021/09/25 03:09:32;;;;;;;8.43;6.20;;;15.50;99.90;;;;;;5087648;28;20641;-37
2021/09/25 03:11:58;;;;;;;6.60;5.90;;;15.50;99.90;;;;;;5086660;28;20455;-38
2021/09/25 03:14:24;;;;;;;9.40;6.60;;;15.40;99.90;;;;;;5079236;28;20273;-37
2021/09/25 03:16:50;;;;;;;7.90;5.87;;;15.40;99.90;;;;;;5080561;28;20193;-37
2021/09/25 03:19:15;;;;;;;7.93;5.67;;;15.40;99.90;;;;;;5074272;28;20434;-37
2021/09/25 03:21:41;;;;;;;6.77;6.07;;;15.50;99.90;;;;;;5083541;28;20184;-37
2021/09/25 03:24:07;;;;;;;7.57;6.17;;;15.50;99.90;;;;;;5085809;28;20497;-37
2021/09/25 03:26:33;;;;;;;7.60;6.40;;;15.50;99.90;;;;;;5086937;28;20177;-37
2021/09/25 03:28:59;;;;;;;7.20;6.00;;;15.50;99.90;;;;;;5086704;28;20434;-37
2021/09/25 03:31:24;;;;;;;6.93;5.93;;;15.50;99.90;;;;;;5081753;28;20188;-37
2021/09/25 03:33:50;;;;;;;9.33;6.70;;;15.50;99.90;;;;;;5073735;28;20662;-37
2021/09/25 03:36:16;;;;;;;12.87;6.70;;;15.60;99.90;;;;;;5086671;28;20188;-37
2021/09/25 03:38:42;;;;;;;7.50;6.43;;;15.60;99.90;;;;;;5086903;28;20211;-38
2021/09/25 03:41:07;;;;;;;7.03;5.67;;;15.60;99.90;;;;;;5087051;28;20952;-37
2021/09/25 03:43:33;;;;;;;7.50;6.40;;;15.60;99.90;;;;;;5084804;28;20622;-37
2021/09/25 03:45:59;;;;;;;9.90;7.57;;;15.60;99.90;;;;;;5087061;28;20192;-37
2021/09/25 03:48:25;;;;;;;7.33;6.47;;;15.60;99.90;;;;;;5076525;28;20723;-37
2021/09/25 03:50:53;;;;;;;10.20;6.40;;;15.60;99.90;;;;;;5085681;28;20749;-37
2021/09/25 03:53:19;;;;;;;11.90;6.93;;;15.70;99.90;;;;;;5086259;28;20808;-37
2021/09/25 03:55:45;;;;;;;7.80;6.30;;;15.70;99.90;;;;;;5087048;28;20449;-37
2021/09/25 03:58:11;;;;;;;10.87;6.73;;;15.70;99.90;;;;;;5086815;28;20462;-37
2021/09/25 04:00:42;;;;;;;8.87;7.30;;;15.70;99.90;;;;;;5085343;28;20184;-37
2021/09/25 04:03:09;;;;;;;7.70;6.90;;;15.70;99.90;;;;;;5077024;28;20686;-37
2021/09/25 04:05:35;;;;;;;9.20;6.30;;;15.70;99.90;;;;;;5085212;28;20422;-38
2021/09/25 04:08:01;;;;;;;7.43;6.73;;;15.80;99.90;;;;;;5086448;28;20446;-38
2021/09/25 04:10:27;;;;;;;9.03;7.10;;;15.80;99.90;;;;;;5086464;28;20241;-39
2021/09/25 04:12:52;;;;;;;8.70;7.10;;;15.80;99.90;;;;;;5084968;28;20188;-37
2021/09/25 04:15:18;;;;;;;8.70;6.60;;;15.70;99.90;;;;;;5084900;28;20199;-37
2021/09/25 04:17:43;;;;;;;8.90;6.60;;;15.80;99.90;;;;;;5063378;28;20224;-37
2021/09/25 04:20:09;;;;;;;9.40;6.70;;;15.70;99.90;;;;;;5079356;28;20191;-37
2021/09/25 04:22:35;;;;;;;10.23;7.60;;;15.70;99.90;;;;;;5085903;28;20196;-37
2021/09/25 04:25:01;;;;;;;8.17;7.00;;;15.70;99.90;;;;;;5084797;28;20422;-37
2021/09/25 04:27:29;;;;;;;9.30;6.70;;;15.80;99.90;;;;;;5086303;28;20787;-37
2021/09/25 04:29:59;;;;;;;8.90;5.93;;;15.80;99.90;;;;;;5086238;28;20187;-37
2021/09/25 04:32:26;;;;;;;7.10;6.10;;;15.80;99.90;;;;;;5081797;28;20513;-37
2021/09/25 04:34:51;;;;;;;7.90;6.20;;;15.80;99.90;;;;;;5078481;28;20425;-38
2021/09/25 04:37:17;;;;;;;8.27;5.90;;;15.80;99.90;;;;;;5051243;28;20466;-37
2021/09/25 04:39:42;;;;;;;9.23;6.70;;;15.80;99.90;;;;;;5085827;28;20187;-37
2021/09/25 04:42:08;;;;;;;7.37;5.83;;;15.80;99.90;;;;;;5086056;28;20189;-37
2021/09/25 04:44:34;;;;;;;8.00;6.17;;;15.80;99.90;;;;;;5085394;28;20185;-37
2021/09/25 04:47:00;;;;;;;8.90;6.67;;;15.80;99.90;;;;;;5085797;28;20249;-38
2021/09/25 04:49:26;;;;;;;8.53;6.57;;;15.80;99.90;;;;;;5063197;28;20956;-37
2021/09/25 04:51:51;;;;;;;7.73;6.77;;;15.80;99.90;;;;;;5085982;28;20568;-37
2021/09/25 04:54:17;;;;;;;8.10;6.50;;;15.80;99.90;;;;;;5085361;28;20191;-37
2021/09/25 04:56:43;;;;;;;9.73;6.87;;;15.80;99.90;;;;;;5085782;28;20628;-37
2021/09/25 04:59:09;;;;;;;9.63;6.80;;;15.70;99.90;;;;;;5084494;28;20208;-37
2021/09/25 05:01:35;;;;;;;8.00;6.30;;;15.70;99.90;;;;;;5085796;28;20280;-37
2021/09/25 05:04:02;;;;;;;8.47;7.27;;;15.70;99.90;;;;;;5065416;28;20188;-37
2021/09/25 05:06:29;;;;;;;10.80;7.30;;;15.70;99.90;;;;;;5083608;28;20781;-37
2021/09/25 05:08:55;;;;;;;9.57;7.43;;;15.80;99.90;;;;;;5085511;28;20948;-37
2021/09/25 05:11:21;;;;;;;9.17;8.00;;;15.80;99.90;;;;;;5085440;28;20485;-37
2021/09/25 05:13:47;;;;;;;9.53;7.50;;;15.80;99.90;;;;;;5085199;28;20607;-37
2021/09/25 05:16:12;;;;;;;9.90;8.33;;;15.80;99.90;;;;;;5085397;28;20211;-37
2021/09/25 05:18:40;;;;;;;13.60;9.90;;;15.80;99.90;;;;;;5078777;28;20273;-37
2021/09/25 05:21:07;;;;;;;12.30;9.90;;;15.80;99.90;;;;;;5073488;28;20189;-37
2021/09/25 05:23:33;;;;;;;9.30;8.03;;;15.80;99.90;;;;;;5083537;28;20418;-37
2021/09/25 05:25:58;;;;;;;9.43;7.67;;;15.80;99.90;;;;;;5085150;28;20430;-37
2021/09/25 05:28:24;;;;;;;12.67;8.37;;;15.80;99.90;;;;;;5085266;28;20456;-37
2021/09/25 05:30:50;;;;;;;9.80;8.60;;;15.80;99.90;;;;;;5085315;28;20316;-37
2021/09/25 05:33:16;;;;;;;12.10;7.80;;;15.90;99.90;;;;;;5077176;28;20196;-38
2021/09/25 05:35:41;;;;;;;10.47;8.10;;;15.90;99.90;;;;;;5078818;28;20184;-37
2021/09/25 05:38:07;;;;;;;9.60;7.00;;;15.90;99.90;;;;;;5084236;28;20213;-37
2021/09/25 05:40:33;;;;;;;8.73;7.63;;;15.90;99.90;;;;;;5085506;28;20189;-37
2021/09/25 05:42:59;;;;;;;10.53;7.10;;;15.90;99.90;;;;;;5084445;28;20435;-37
2021/09/25 05:45:25;;;;;;;13.07;8.10;;;15.90;99.90;;;;;;5086176;28;20420;-37
2021/09/25 05:47:51;;;;;;;12.20;8.60;;;15.90;99.90;;;;;;5085930;28;20219;-37
2021/09/25 05:50:17;;;;;;;9.77;7.70;;;15.90;99.90;;;;;;5084037;28;20422;-37
2021/09/25 05:52:43;;;;;;;12.03;7.60;;;15.90;99.90;;;;;;5086963;28;20453;-37
2021/09/25 05:55:09;;;;;;;10.93;8.50;;;15.90;99.90;;;;;;5088908;28;20565;-37
2021/09/25 05:57:35;;;;;;;8.77;7.70;;;15.80;99.90;;;;;;5088671;28;20750;-37
2021/09/25 06:00:03;;;;;;;9.70;7.40;;;15.80;99.90;;;;;;5089089;28;20514;-37
2021/09/25 06:02:28;;;;;;;7.90;6.90;;;15.90;99.90;;;;;;5089100;28;20614;-37
2021/09/25 06:04:54;;;;;;;11.90;8.30;;;15.90;99.90;;;;;;5077087;28;20469;-37
2021/09/25 06:07:20;;;;;;;11.17;7.73;;;15.90;99.90;;;;;;5083246;28;20196;-37
2021/09/25 06:09:46;;;;;;;10.40;8.70;;;15.90;99.90;;;;;;5089069;28;20642;-37
2021/09/25 06:12:12;;;;;;;8.97;6.90;;;16.00;99.90;;;;;;5076022;28;20432;-38
2021/09/25 06:14:38;;;;;;;8.60;7.20;;;15.90;99.90;;;;;;5087803;28;20499;-37
2021/09/25 06:17:04;;;;;;;10.20;7.30;;;16.00;99.90;;;;;;5088597;28;20227;-37
2021/09/25 06:19:30;;;;;;;11.80;7.90;;;16.00;99.90;;;;;;5075921;28;20435;-37
2021/09/25 06:21:56;;;;;;;12.20;7.87;;;16.00;99.90;;;;;;5086878;28;20410;-37
2021/09/25 06:24:22;;;;;;;9.77;8.10;;;16.00;99.90;;;;;;5086132;28;20786;-38
2021/09/25 06:26:48;;;;;;;9.53;7.20;;;16.00;99.90;;;;;;5088330;28;20184;-37
2021/09/25 06:29:14;;;;;;;8.90;7.50;;;16.00;99.90;;;;;;5088195;28;20184;-37
2021/09/25 06:31:40;;;;;;;9.97;7.37;;;16.00;99.90;;;;;;5088418;28;20558;-38
2021/09/25 06:34:05;;;;;;;9.50;8.10;;;16.10;99.90;;;;;;5082502;28;20719;-37
2021/09/25 06:36:33;;;;;;;9.83;7.47;;;16.10;99.90;;;;;;5085874;28;20210;-37
2021/09/25 06:39:00;;;;;;;10.23;7.40;;;16.10;99.90;;;;;;5087847;28;20223;-37
2021/09/25 06:41:26;;;;;;;10.93;7.80;;;16.10;99.90;;;;;;5085082;28;20472;-38
2021/09/25 06:43:51;;;;;;;10.70;8.03;;;16.10;99.90;;;;;;5085837;28;20410;-38
2021/09/25 06:46:17;;;;;;;11.13;7.60;;;16.10;99.90;;;;;;5087614;28;20403;-38
2021/09/25 06:48:43;;;;;;;12.70;7.90;;;16.20;99.90;;;;;;5083079;28;20275;-38
2021/09/25 06:51:09;;;;;;;12.50;8.70;;;16.10;99.90;;;;;;5084798;28;20227;-38
2021/09/25 06:53:35;;;;;;;12.30;8.87;;;16.20;99.90;;;;;;5087437;28;20326;-37
2021/09/25 06:56:00;;;;;;;10.80;8.43;;;16.10;99.90;;;;;;5086045;28;20565;-37
2021/09/25 06:58:26;;;;;;;12.10;9.20;;;16.10;99.90;;;;;;5087180;28;20858;-37
2021/09/25 07:00:52;;;;;;;13.57;9.87;;;16.20;99.90;;;;;;5085356;28;20196;-37
2021/09/25 07:03:17;;;;;;;11.30;9.90;;;16.20;99.90;;;;;;5084212;28;20185;-37
2021/09/25 07:05:43;;;;;;;10.53;8.60;;;16.20;99.90;;;;;;5086104;28;20188;-37
2021/09/25 07:08:09;;;;;;;12.67;9.40;;;16.20;99.90;;;;;;5087645;28;20211;-37
2021/09/25 07:10:36;;;;;;;11.50;8.57;;;16.30;99.90;;;;;;5084071;28;20437;-37
2021/09/25 07:13:03;;;;;;;10.10;8.97;;;16.30;99.90;;;;;;5086167;28;20464;-37
2021/09/25 07:15:30;;;;;;;12.17;9.23;;;16.30;99.90;;;;;;5087536;28;20418;-37
2021/09/25 07:17:56;;;;;;;13.60;9.67;;;16.30;99.90;;;;;;5085742;28;20468;-37
2021/09/25 07:20:22;;;;;;;14.13;8.87;;;16.30;99.90;;;;;;5077926;28;20431;-38
2021/09/25 07:22:51;;;;;;;13.07;8.60;;;16.30;99.90;;;;;;5084333;28;20447;-37
2021/09/25 07:25:24;;;;;;;11.90;8.50;;;16.40;99.90;;;;;;5085816;28;20411;-37
2021/09/25 07:27:50;;;;;;;11.50;8.80;;;16.40;99.90;;;;;;5087016;28;20483;-37
2021/09/25 07:30:17;;;;;;;14.40;8.93;;;16.40;99.90;;;;;;5080866;28;20430;-37
2021/09/25 07:32:43;;;;;;;9.90;7.90;;;16.40;99.90;;;;;;5082360;28;20430;-37
2021/09/25 07:35:11;;;;;;;12.07;9.90;;;16.40;99.90;;;;;;5082037;28;20455;-37
2021/09/25 07:37:37;;;;;;;10.80;8.30;;;16.50;99.90;;;;;;5076944;28;20224;-38
2021/09/25 07:40:04;;;;;;;11.93;8.47;;;16.40;99.90;;;;;;5076873;28;20411;-37
2021/09/25 07:42:30;;;;;;;12.70;8.90;;;16.40;99.90;;;;;;5086910;28;20514;-37
2021/09/25 07:44:56;;;;;;;12.73;8.33;;;16.40;99.90;;;;;;5085409;28;20996;-37
2021/09/25 07:47:22;;;;;;;11.20;8.70;;;16.40;99.90;;;;;;5085719;28;20426;-38
2021/09/25 07:49:48;;;;;;;11.40;8.60;;;16.40;99.90;;;;;;5077947;28;20434;-37
2021/09/25 07:52:13;;;;;;;10.80;8.50;;;16.40;99.90;;;;;;5084222;28;20188;-37
2021/09/25 07:54:39;;;;;;;10.80;7.70;;;16.40;99.90;;;;;;5087542;28;20214;-37
2021/09/25 07:57:05;;;;;;;10.07;8.70;;;16.40;99.90;;;;;;5088414;28;20193;-38
2021/09/25 07:59:30;;;;;;;10.30;8.20;;;16.40;99.90;;;;;;5088596;28;20193;-37
2021/09/25 08:01:56;;;;;;;11.90;8.50;;;16.50;99.90;;;;;;5086258;28;20188;-37
2021/09/25 08:04:22;;;;;;;11.57;8.20;;;16.50;99.90;;;;;;5069834;28;20704;-38
2021/09/25 08:06:47;;;;;;;10.93;9.30;;;16.50;99.90;;;;;;5086466;28;20663;-38
2021/09/25 08:09:13;;;;;;;8.73;7.77;;;16.50;99.90;;;;;;5086540;28;20290;-37
2021/09/25 08:11:39;;;;;;;11.90;8.67;;;16.50;99.90;;;;;;5088596;28;20199;-37
2021/09/25 08:14:04;;;;;;;12.33;8.40;;;16.60;99.90;;;;;;5087733;28;20196;-37
2021/09/25 08:16:30;;;;;;;13.80;8.60;;;16.60;99.90;;;;;;5088374;28;20643;-37
2021/09/25 08:18:57;;;;;;;12.07;8.37;;;16.70;99.90;;;;;;5085559;28;20273;-37
2021/09/25 08:21:24;;;;;;;10.83;8.13;;;16.70;99.90;;;;;;5080894;28;20434;-37
2021/09/25 08:23:51;;;;;;;12.87;8.40;;;16.70;99.90;;;;;;5085843;28;20419;-39
2021/09/25 08:26:17;;;;;;;10.33;7.93;;;16.70;99.90;;;;;;5087235;28;20450;-37
2021/09/25 08:28:43;;;;;;;10.30;8.23;;;16.70;99.90;;;;;;5085161;28;20933;-37
2021/09/25 08:31:08;;;;;;;12.43;9.70;;;16.70;99.90;;;;;;5086912;28;20431;-37
2021/09/25 08:33:34;;;;;;;11.10;8.33;;;16.70;99.90;;;;;;5086306;28;20814;-38
2021/09/25 08:36:01;;;;;;;11.00;9.13;;;16.70;99.90;;;;;;5073769;28;20192;-39
2021/09/25 08:38:27;;;;;;;13.77;8.93;;;16.70;99.90;;;;;;5085260;28;20912;-39
2021/09/25 08:40:55;;;;;;;12.93;8.63;;;16.70;99.90;;;;;;5086539;28;20422;-38
2021/09/25 08:43:24;;;;;;;11.37;8.20;;;16.80;99.90;;;;;;5085303;28;20514;-38
2021/09/25 08:46:03;;;;;;;11.00;7.80;;;16.70;99.90;;;;;;5085879;28;21055;-39
2021/09/25 08:48:29;;;;;;;8.40;7.33;;;16.70;99.90;;;;;;5086319;28;20523;-38
2021/09/25 08:50:56;;;;;;;10.10;8.00;;;16.80;99.90;;;;;;5074317;28;20496;-38
2021/09/25 08:53:22;;;;;;;8.47;7.23;;;16.80;99.90;;;;;;5085227;28;20806;-39
2021/09/25 08:55:48;;;;;;;8.90;8.00;;;16.80;99.90;;;;;;5085649;28;20426;-38
2021/09/25 08:58:15;;;;;;;9.73;7.20;;;16.80;99.90;;;;;;5084302;28;20469;-38
2021/09/25 09:00:46;;;;;;;8.93;7.00;;;16.80;99.90;;;;;;5085568;28;20414;-38
2021/09/25 09:03:18;;;;;;;9.43;7.33;;;16.80;99.90;;;;;;5072539;28;20422;-38
2021/09/25 09:05:44;;;;;;;8.70;7.37;;;16.90;99.90;;;;;;5072237;28;20422;-38
2021/09/25 09:08:10;;;;;;;9.10;7.40;;;16.90;99.90;;;;;;5085348;28;20441;-38
2021/09/25 09:10:36;;;;;;;11.00;7.73;;;16.90;99.90;;;;;;5085982;28;20241;-38
2021/09/25 09:13:03;;;;;;;10.20;6.97;;;17.00;99.90;;;;;;5084981;28;20196;-38
2021/09/25 09:15:33;;;;;;;11.03;7.93;;;17.00;99.90;;;;;;5072330;28;20896;-38
2021/09/25 09:18:01;;;;;;;8.33;7.47;;;17.00;99.90;;;;;;5085406;28;20456;-39
2021/09/25 09:20:28;;;;;;;8.67;6.33;;;17.10;99.90;;;;;;5079328;28;20443;-38
2021/09/25 09:23:14;;;;;;;7.03;6.10;;;17.10;99.90;;;;;;5090611;28;20526;-38
2021/09/25 09:25:41;;;;;;;8.30;6.30;;;17.10;99.90;;;;;;5091542;28;20501;-39
2021/09/25 09:28:20;;;;;;;9.03;6.70;;;17.20;99.90;;;;;;5089557;28;20501;-38
2021/09/25 09:30:47;;;;;;;8.60;6.53;;;17.20;99.90;;;;;;5089325;28;20909;-38
2021/09/25 09:33:28;;;;;;;7.63;6.30;;;17.20;99.90;;;;;;5088741;28;20834;-38
2021/09/25 09:36:09;;;;;;;6.73;6.03;;;17.20;99.90;;;;;;5076258;28;20538;-41
2021/09/25 09:38:41;;;;;;;8.50;6.53;;;17.20;99.90;;;;;;5084600;28;20501;-38
2021/09/25 09:41:07;;;;;;;6.60;6.00;;;17.30;99.90;;;;;;5085305;28;20418;-38
2021/09/25 09:43:32;;;;;;;8.53;6.30;;;17.40;99.90;;;;;;5088655;28;20429;-38
2021/09/25 09:45:58;;;;;;;7.60;5.87;;;17.40;99.90;;;;;;5088180;28;20424;-38
2021/09/25 09:48:23;;;;;;;7.80;6.60;;;17.40;99.90;;;;;;5071244;28;20223;-38
2021/09/25 09:50:50;;;;;;;7.67;6.87;;;17.40;99.90;;;;;;5078467;28;20193;-38
2021/09/25 09:53:16;;;;;;;12.33;7.13;;;17.40;99.90;;;;;;5078244;28;20758;-38
2021/09/25 09:55:42;;;;;;;7.73;6.40;;;17.40;99.90;;;;;;5087454;28;20418;-38
2021/09/25 09:58:08;;;;;;;9.07;7.53;;;17.50;99.90;;;;;;5088937;28;20854;-38
2021/09/25 10:00:36;;;;;;;8.80;7.17;;;17.40;99.90;;;;;;5086579;28;20995;-38
2021/09/25 10:03:02;;;;;;;8.63;7.70;;;17.50;99.90;;;;;;5082768;28;20184;-39
2021/09/25 10:05:28;;;;;;;12.73;7.40;;;17.50;99.90;;;;;;5080308;28;20508;-38
2021/09/25 10:07:53;;;;;;;9.07;7.53;;;17.50;99.90;;;;;;5081310;28;20453;-38
2021/09/25 10:10:23;;;;;;;8.67;7.23;;;17.60;99.90;;;;;;5083135;28;20438;-40
2021/09/25 10:12:49;;;;;;;8.30;6.70;;;17.60;99.90;;;;;;5080494;28;20196;-38
2021/09/25 10:15:15;;;;;;;10.50;8.07;;;17.60;99.90;;;;;;5085974;28;20418;-38
2021/09/25 10:17:45;;;;;;;9.17;7.60;;;17.60;99.90;;;;;;5087492;28;20609;-39
2021/09/25 10:20:11;;;;;;;8.03;7.20;;;17.60;99.90;;;;;;5083581;28;20435;-38
2021/09/25 10:22:38;;;;;;;7.80;6.90;;;17.60;99.90;;;;;;5083282;28;20410;-38
2021/09/25 10:25:11;;;;;;;10.37;7.27;;;17.70;99.90;;;;;;5086127;28;20913;-40
2021/09/25 10:27:40;;;;;;;8.50;7.43;;;17.70;99.90;;;;;;5087385;28;20453;-38
2021/09/25 10:30:10;;;;;;;7.07;6.23;;;17.70;99.90;;;;;;5086847;28;20517;-41
2021/09/25 10:32:53;;;;;;;7.33;6.20;;;17.70;99.90;;;;;;5088144;28;20933;-40
2021/09/25 10:35:25;;;;;;;6.93;6.23;;;17.80;99.90;;;;;;5082789;28;20450;-38
2021/09/25 10:37:57;;;;;;;10.73;7.87;;;17.80;99.90;;;;;;5080310;28;20466;-39
2021/09/25 10:40:28;;;;;;;8.37;5.83;;;17.80;99.90;;;;;;5088116;28;20920;-41
2021/09/25 10:43:00;;;;;;;6.80;6.20;;;17.80;99.90;;;;;;5087488;28;20415;-39
2021/09/25 10:45:38;;;;;;;9.63;7.00;;;17.90;99.90;;;;;;5086483;28;20430;-38
2021/09/25 10:48:05;;;;;;;9.83;6.77;;;17.90;99.90;;;;;;5088246;28;20418;-40
2021/09/25 10:50:33;;;;;;;7.70;6.90;;;17.90;99.90;;;;;;5084002;28;20442;-38
2021/09/25 10:53:29;;;;;;;7.87;7.07;;;18.00;99.90;;;;;;5081376;28;20422;-38
2021/09/25 10:55:59;;;;;;;8.07;6.53;;;18.00;99.90;;;;;;5086750;28;20418;-39
2021/09/25 10:58:25;;;;;;;11.43;9.07;;;18.10;99.90;;;;;;5086795;28;20470;-38
2021/09/25 11:01:04;;;;;;;9.80;8.80;;;18.10;99.90;;;;;;5087918;28;20437;-38
2021/09/25 11:03:48;;;;;;;10.03;8.50;;;18.20;99.90;;;;;;5087116;28;20396;-39
2021/09/25 11:06:14;;;;;;;9.27;7.00;;;18.20;99.90;;;;;;5078213;28;20432;-38
2021/09/25 11:08:55;;;;;;;9.73;7.80;;;18.20;99.90;;;;;;5086765;28;20434;-41
2021/09/25 11:11:40;;;;;;;8.80;7.57;;;18.30;99.90;;;;;;5086270;28;20223;-38
2021/09/25 11:14:08;;;;;;;7.60;6.80;;;18.30;99.90;;;;;;5087088;28;20823;-38
2021/09/25 11:16:58;;;;;;;8.10;7.27;;;18.30;99.90;;;;;;5087379;28;20422;-38
2021/09/25 11:19:24;;;;;;;7.63;6.30;;;18.40;99.90;;;;;;5086542;28;20481;-39
2021/09/25 11:22:06;;;;;;;8.20;7.37;;;18.50;99.90;;;;;;5076017;28;20442;-38
2021/09/25 11:24:37;;;;;;;7.17;6.43;;;18.50;99.90;;;;;;5084362;28;20192;-43
2021/09/25 11:27:15;;;;;;;7.93;7.13;;;18.60;99.90;;;;;;5087203;28;20487;-39
2021/09/25 11:29:49;;;;;;;9.30;7.80;;;18.70;99.90;;;;;;5087457;28;20454;-39
2021/09/25 11:32:15;;;;;;;8.47;7.67;;;18.70;99.90;;;;;;5087406;28;20425;-38
2021/09/25 11:34:41;;;;;;;9.43;7.47;;;18.70;99.90;;;;;;5086601;28;20436;-38
2021/09/25 11:37:07;;;;;;;9.20;7.03;;;18.70;99.90;;;;;;5060624;28;20922;-41
2021/09/25 11:39:46;;;;;;;7.80;7.10;;;18.70;99.90;;;;;;5085113;28;20302;-39
2021/09/25 11:42:11;;;;;;;8.87;7.70;;;18.80;99.90;;;;;;5086383;28;20682;-39
2021/09/25 11:44:49;;;;;;;9.23;7.90;;;18.80;99.90;;;;;;5086152;28;20429;-39
2021/09/25 11:47:23;;;;;;;9.07;8.17;;;18.80;99.90;;;;;;5087032;28;20184;-40
2021/09/25 11:49:49;;;;;;;8.03;6.40;;;18.80;99.90;;;;;;5086910;28;20499;-38
2021/09/25 11:52:15;;;;;;;8.30;7.40;;;18.80;99.90;;;;;;5072955;28;20431;-38
2021/09/25 11:54:41;;;;;;;8.60;7.37;;;18.80;99.90;;;;;;5084540;28;20510;-39
2021/09/25 11:57:17;;;;;;;9.70;7.90;;;18.90;99.90;;;;;;5085466;28;20556;-39
2021/09/25 11:59:43;;;;;;;7.93;7.23;;;18.90;99.90;;;;;;5086479;28;20465;-39
2021/09/25 12:02:09;;;;;;;9.17;6.83;;;18.90;99.90;;;;;;5082992;28;20463;-40
2021/09/25 12:04:39;;;;;;;8.13;7.37;;;18.90;99.90;;;;;;5076080;28;20422;-39
2021/09/25 12:07:05;;;;;;;5.93;5.30;;;18.90;99.90;;;;;;5081044;28;20313;-40
2021/09/25 12:09:42;;;;;;;9.43;7.77;;;18.90;99.90;;;;;;5078149;28;21680;-39
2021/09/25 12:12:09;;;;;;;6.80;5.77;;;18.90;99.90;;;;;;5082660;28;20422;-40
2021/09/25 12:14:45;;;;;;;7.57;6.80;;;19.00;99.90;;;;;;5079510;28;20426;-39
2021/09/25 12:17:15;;;;;;;9.77;7.13;;;19.00;99.90;;;;;;5086350;28;20437;-38
2021/09/25 12:19:43;;;;;;;6.87;6.23;;;19.00;99.90;;;;;;5086256;28;20444;-38
2021/09/25 12:22:23;;;;;;;8.20;7.33;;;19.00;99.90;;;;;;5076238;28;20496;-39
2021/09/25 12:24:49;;;;;;;7.30;5.67;;;19.00;99.90;;;;;;5079263;28;20488;-40
2021/09/25 12:27:30;;;;;;;6.90;6.17;;;19.00;99.90;;;;;;5086247;28;20418;-38
2021/09/25 12:30:06;;;;;;;6.00;5.40;;;19.10;99.90;;;;;;5085848;28;20740;-38
2021/09/25 12:32:31;;;;;;;9.43;6.40;;;19.10;99.90;;;;;;5085854;28;20490;-39
2021/09/25 12:34:57;;;;;;;10.30;5.97;;;19.10;99.90;;;;;;5085470;28;20541;-38
2021/09/25 12:37:23;;;;;;;8.67;6.27;;;19.10;99.90;;;;;;5074276;28;20203;-40
2021/09/25 12:39:50;;;;;;;7.37;5.60;;;19.10;99.90;;;;;;5064677;28;20188;-39
2021/09/25 12:42:26;;;;;;;5.87;5.30;;;19.10;99.90;;;;;;5084913;28;20191;-39
2021/09/25 12:44:55;;;;;;;7.33;5.60;;;19.20;99.90;;;;;;5085466;28;20433;-38